Terminal Aerodrome Forecast
Issued by NWS Tampa Bay Area, FL

Home | Current Version | Previous Version | Text Only | Print | Product List | Glossary On
Versions: 1 2 3 4 5 6 7 8 9 10 11 12 13 14 15 16 17 18 19 20 21 22 23 24 25 26 27 28 29
000
FTUS42 KTBW 290900 AAA
TAFTPA
TAF AMD
KTPA 290900Z 2909/3006 06007KT P6SM FEW015 SCT250
     FM291500 08009KT P6SM FEW009 SCT030 BKN110
     FM291800 08010KT P6SM VCTS SCT035CB BKN100
     FM300100 06009KT P6SM SCT025 BKN100 OVC200=

USA.gov is the U.S. government's official web portal to all federal, state and local government web resources and services.